Time;durP1;ratioP1;P1;durP2;ratioP2;P2;SDS_P1;SDS_P2;PMS_P1;PMS_P2;Temp;Humidity;BMP_temperature;BMP_pressure;BME280_temperature;BME280_humidity;BME280_pressure;Samples;Min_cycle;Max_cycle;Signal;HPM_P1;HPM_P2
2021/03/29 00:05:52;;;;;;;2.20;1.50;;;4.60;99.90;;;;;;20925501;28;19920;-79
2021/03/29 00:15:54;;;;;;;6.90;1.77;;;4.60;99.90;;;;;;20927495;28;20037;-78
2021/03/29 00:25:56;;;;;;;7.43;1.80;;;4.40;99.90;;;;;;20947922;28;20084;-78
2021/03/29 00:35:58;;;;;;;3.45;1.63;;;4.50;99.90;;;;;;20949916;28;20044;-79
2021/03/29 00:46:02;;;;;;;7.57;1.77;;;3.70;99.90;;;;;;20948053;28;20029;-79
2021/03/29 00:56:04;;;;;;;6.50;2.10;;;3.60;99.90;;;;;;20947596;28;20025;-77
2021/03/29 01:06:17;;;;;;;3.90;1.58;;;3.70;99.90;;;;;;20952130;28;20041;-77
2021/03/29 01:16:21;;;;;;;5.88;1.33;;;3.60;99.90;;;;;;20946958;28;20060;-79
2021/03/29 01:26:44;;;;;;;2.67;1.50;;;4.00;99.90;;;;;;20948846;28;20029;-79
2021/03/29 01:36:45;;;;;;;;;;;3.80;99.90;;;;;;20946901;28;20034;-79
2021/03/29 01:46:47;;;;;;;7.25;1.63;;;3.70;99.90;;;;;;20949120;28;19909;-77
2021/03/29 01:56:47;;;;;;;;;;;3.70;99.90;;;;;;20944236;28;20037;-79
2021/03/29 02:06:49;;;;;;;5.20;1.23;;;3.70;99.90;;;;;;20943547;28;19908;-79
2021/03/29 02:16:50;;;;;;;;;;;3.80;99.90;;;;;;20955195;28;20036;-77
2021/03/29 02:26:52;;;;;;;3.45;1.50;;;3.70;99.90;;;;;;20958162;28;20470;-78
2021/03/29 02:36:53;;;;;;;2.55;1.50;;;3.70;99.90;;;;;;20955974;28;20040;-79
2021/03/29 02:46:54;;;;;;;3.15;1.42;;;3.80;99.90;;;;;;20938960;28;20087;-77
2021/03/29 02:56:57;;;;;;;5.40;2.03;;;3.60;99.90;;;;;;20957670;28;20399;-77
2021/03/29 03:06:59;;;;;;;4.25;1.80;;;3.80;99.90;;;;;;20954438;28;20290;-78
2021/03/29 03:17:00;;;;;;;3.47;1.65;;;3.70;99.90;;;;;;20953308;28;20040;-80
2021/03/29 03:27:10;;;;;;;8.73;3.30;;;3.60;99.90;;;;;;20955346;28;20088;-79
2021/03/29 03:37:16;;;;;;;4.53;2.80;;;3.50;99.90;;;;;;20952390;28;20032;-79
2021/03/29 03:47:17;;;;;;;5.85;2.85;;;3.50;99.90;;;;;;20952481;28;20037;-78
2021/03/29 03:57:18;;;;;;;6.70;3.67;;;3.50;99.90;;;;;;20965100;28;20021;-78
2021/03/29 04:07:20;;;;;;;8.02;3.60;;;3.40;99.90;;;;;;20960528;28;20395;-79
2021/03/29 04:17:21;;;;;;;6.03;3.38;;;3.40;99.90;;;;;;20949889;28;20033;-79
2021/03/29 04:27:22;;;;;;;6.47;3.90;;;3.40;99.90;;;;;;20954171;28;20036;-79
2021/03/29 04:37:23;;;;;;;9.47;3.30;;;3.40;99.90;;;;;;20938987;28;20029;-76
2021/03/29 04:47:23;;;;;;;10.83;3.67;;;3.20;99.90;;;;;;20910252;28;20271;-77
2021/03/29 04:57:24;;;;;;;6.43;2.80;;;3.20;99.90;;;;;;20902547;28;20128;-77
2021/03/29 05:07:25;;;;;;;8.27;2.87;;;3.20;99.90;;;;;;20893844;28;20087;-78
2021/03/29 05:17:26;;;;;;;7.57;3.07;;;2.80;99.90;;;;;;20967328;23;20044;-76
2021/03/29 05:27:27;;;;;;;6.87;3.40;;;2.80;99.90;;;;;;20891641;28;20055;-76
2021/03/29 05:37:29;;;;;;;7.23;2.60;;;2.90;99.90;;;;;;20869792;28;20044;-77
2021/03/29 05:47:31;;;;;;;3.80;2.22;;;2.70;99.90;;;;;;20917840;28;20359;-77
2021/03/29 05:57:42;;;;;;;7.60;3.50;;;2.90;99.90;;;;;;20942992;28;20116;-78
2021/03/29 06:07:57;;;;;;;9.57;3.53;;;3.40;99.90;;;;;;20934155;28;20033;-77
2021/03/29 06:18:12;;;;;;;11.48;3.67;;;3.80;99.90;;;;;;20937750;28;20029;-77
2021/03/29 06:28:25;;;;;;;7.20;3.67;;;4.20;99.90;;;;;;20938069;28;20029;-77
2021/03/29 06:38:28;;;;;;;8.43;3.95;;;4.70;99.90;;;;;;20940669;28;20044;-77
2021/03/29 06:48:30;;;;;;;11.98;4.10;;;5.20;99.90;;;;;;20940266;28;20029;-77
2021/03/29 06:58:31;;;;;;;7.63;4.28;;;5.80;99.90;;;;;;20943469;28;20035;-77
2021/03/29 07:08:32;;;;;;;8.60;3.30;;;6.40;99.90;;;;;;20942531;28;20032;-78
2021/03/29 07:18:37;;;;;;;15.07;5.03;;;6.60;99.90;;;;;;20940099;28;20092;-77
2021/03/29 07:28:38;;;;;;;10.68;4.25;;;7.40;99.90;;;;;;20936766;28;20055;-77
2021/03/29 07:38:55;;;;;;;13.07;4.90;;;7.50;99.90;;;;;;20935848;28;20037;-77
2021/03/29 07:48:56;;;;;;;8.88;4.90;;;8.10;99.90;;;;;;20935896;28;20033;-77
2021/03/29 07:58:57;;;;;;;9.63;4.67;;;8.80;99.90;;;;;;20935315;28;20056;-77
2021/03/29 08:08:58;;;;;;;14.57;4.67;;;9.60;99.90;;;;;;20934791;28;20082;-77
2021/03/29 08:19:10;;;;;;;9.07;4.07;;;10.10;99.90;;;;;;20915619;28;20127;-78
2021/03/29 08:29:13;;;;;;;7.67;4.20;;;10.70;99.90;;;;;;20934540;28;20078;-77
2021/03/29 08:39:15;;;;;;;12.52;3.80;;;11.40;99.90;;;;;;20931713;28;20029;-77
2021/03/29 08:49:16;;;;;;;8.82;5.22;;;12.00;99.90;;;;;;20936404;28;20072;-77
2021/03/29 08:59:25;;;;;;;7.83;4.07;;;13.40;99.90;;;;;;20937159;28;20037;-77
2021/03/29 09:09:30;;;;;;;10.77;3.97;;;13.60;99.90;;;;;;20937941;28;20033;-77
2021/03/29 09:19:34;;;;;;;9.88;4.10;;;14.70;99.90;;;;;;20939192;28;20124;-78
2021/03/29 09:29:38;;;;;;;6.55;4.03;;;15.50;99.90;;;;;;20942112;28;20044;-78
2021/03/29 09:39:39;;;;;;;8.70;3.83;;;14.90;99.90;;;;;;20939795;28;20090;-78
2021/03/29 09:49:50;;;;;;;5.72;3.42;;;15.60;99.90;;;;;;20941903;28;20422;-78
2021/03/29 09:59:52;;;;;;;9.20;3.40;;;16.40;99.90;;;;;;20940020;28;20032;-78
2021/03/29 10:10:04;;;;;;;7.15;5.05;;;17.40;99.90;;;;;;20940830;28;20040;-78
2021/03/29 10:20:11;;;;;;;6.18;3.72;;;18.50;99.90;;;;;;20944798;28;20126;-80
2021/03/29 10:30:34;;;;;;;8.70;4.03;;;19.80;99.90;;;;;;20948570;28;20025;-78
2021/03/29 10:40:35;;;;;;;14.07;3.60;;;19.60;99.90;;;;;;20963905;28;20122;-79
2021/03/29 10:50:36;;;;;;;7.47;4.40;;;21.50;99.90;;;;;;20977631;28;20037;-80
2021/03/29 11:00:37;;;;;;;8.50;3.50;;;21.40;99.90;;;;;;20971620;28;20499;-79
2021/03/29 11:10:38;;;;;;;9.87;2.77;;;21.10;95.50;;;;;;20957590;28;20066;-80
2021/03/29 11:20:38;;;;;;;3.63;1.80;;;19.90;94.90;;;;;;21044272;23;20556;-79
2021/03/29 11:30:39;;;;;;;5.57;1.80;;;20.70;91.30;;;;;;21036502;28;20060;-79
2021/03/29 11:40:41;;;;;;;2.23;1.20;;;19.80;74.60;;;;;;21048443;28;20047;-79
2021/03/29 11:50:41;;;;;;;4.30;1.70;;;20.30;73.00;;;;;;21037799;28;20044;-79
2021/03/29 12:21:07;;;;;;;2.45;1.20;;;20.30;64.40;;;;;;21012671;28;20474;-79
2021/03/29 12:31:08;;;;;;;9.43;4.18;;;20.80;58.30;;;;;;20935916;28;20134;-80
2021/03/29 12:41:11;;;;;;;4.03;1.43;;;21.10;59.00;;;;;;20938206;28;20101;-81
2021/03/29 12:51:14;;;;;;;5.18;1.33;;;21.10;55.50;;;;;;20957202;28;20506;-79
2021/03/29 13:01:15;;;;;;;5.53;1.92;;;21.20;50.80;;;;;;20933350;28;20029;-79
2021/03/29 13:21:21;;;;;;;1.73;1.13;;;21.10;49.20;;;;;;20935387;28;20025;-79
2021/03/29 13:31:23;;;;;;;3.97;1.20;;;21.50;49.70;;;;;;20928657;28;20380;-80
2021/03/29 13:41:24;;;;;;;3.73;1.00;;;21.70;54.90;;;;;;20924916;28;20338;-80
2021/03/29 13:51:25;;;;;;;2.50;0.90;;;22.00;47.80;;;;;;20923605;28;20310;-78
2021/03/29 14:01:32;;;;;;;2.00;1.07;;;21.50;46.70;;;;;;20935503;28;20116;-81
2021/03/29 14:11:32;;;;;;;3.72;1.15;;;22.10;49.10;;;;;;20941243;28;20457;-80
2021/03/29 14:21:35;;;;;;;2.77;0.97;;;22.20;46.70;;;;;;20943867;28;20032;-79
2021/03/29 14:31:36;;;;;;;2.85;1.00;;;22.80;46.60;;;;;;20981372;28;20092;-80
2021/03/29 14:52:09;;;;;;;2.50;0.82;;;23.20;43.20;;;;;;20986990;28;20056;-79
2021/03/29 15:02:10;;;;;;;3.50;1.00;;;23.50;42.90;;;;;;20966864;28;20462;-81
2021/03/29 15:12:11;;;;;;;;;;;24.00;47.70;;;;;;20953453;28;20506;-81
2021/03/29 15:22:13;;;;;;;3.78;1.10;;;24.50;43.70;;;;;;20988095;28;20058;-80
2021/03/29 15:32:13;;;;;;;4.30;1.67;;;25.10;44.10;;;;;;20979332;28;20376;-79
2021/03/29 15:42:14;;;;;;;4.07;1.00;;;24.40;44.60;;;;;;20909266;28;20068;-80
2021/03/29 15:52:15;;;;;;;1.60;0.90;;;24.50;43.80;;;;;;20910157;28;20041;-79
2021/03/29 16:02:22;;;;;;;3.83;1.17;;;23.10;45.80;;;;;;20979583;28;20033;-79
2021/03/29 16:12:22;;;;;;;1.70;1.13;;;22.80;45.20;;;;;;21040183;28;20036;-79
2021/03/29 16:22:23;;;;;;;2.90;1.00;;;22.50;46.00;;;;;;21092692;28;20114;-79
2021/03/29 16:32:25;;;;;;;3.43;1.10;;;21.60;46.40;;;;;;21048641;28;20088;-79
2021/03/29 16:42:26;;;;;;;;;;;21.10;48.10;;;;;;21007955;28;20444;-80
2021/03/29 16:52:27;;;;;;;5.75;1.10;;;20.60;52.00;;;;;;20949291;28;19912;-79
2021/03/29 17:02:28;;;;;;;4.23;1.60;;;20.30;54.70;;;;;;20948748;28;20402;-79
2021/03/29 17:12:28;;;;;;;5.87;1.57;;;19.80;56.50;;;;;;20966577;28;20491;-78
2021/03/29 17:22:29;;;;;;;6.83;1.13;;;19.40;60.80;;;;;;20844885;23;20041;-80
2021/03/29 17:32:30;;;;;;;1.60;1.20;;;19.00;61.40;;;;;;20728860;28;20045;-79
2021/03/29 17:42:31;;;;;;;36.97;16.90;;;17.90;69.30;;;;;;20770800;28;20496;-82
2021/03/29 17:52:34;;;;;;;6.85;2.22;;;16.70;77.00;;;;;;20800505;28;20037;-80
2021/03/29 18:02:35;;;;;;;3.50;2.30;;;16.80;74.80;;;;;;20791099;28;20029;-79
2021/03/29 18:12:36;;;;;;;6.47;1.60;;;16.40;75.30;;;;;;20792100;28;20041;-81
2021/03/29 18:22:37;;;;;;;6.00;1.35;;;14.20;85.00;;;;;;20786577;28;20052;-80
2021/03/29 18:32:38;;;;;;;5.32;1.88;;;13.40;88.10;;;;;;20773135;28;20061;-80
2021/03/29 18:42:39;;;;;;;8.23;2.92;;;12.60;91.60;;;;;;20762678;28;20022;-80
2021/03/29 18:52:40;;;;;;;7.57;3.15;;;12.60;93.40;;;;;;20759247;28;20057;-80
2021/03/29 19:02:41;;;;;;;5.40;2.13;;;12.00;96.00;;;;;;20768263;28;20547;-80
2021/03/29 19:12:42;;;;;;;11.05;4.63;;;11.80;98.00;;;;;;20745844;28;20040;-79
2021/03/29 19:22:43;;;;;;;9.97;3.67;;;11.20;99.90;;;;;;20759606;28;20075;-79
2021/03/29 19:32:44;;;;;;;9.38;2.58;;;11.10;99.90;;;;;;20756507;28;20038;-78
2021/03/29 19:42:45;;;;;;;3.47;1.80;;;10.80;99.90;;;;;;20753258;28;20082;-79
2021/03/29 19:52:46;;;;;;;5.70;2.65;;;10.90;99.90;;;;;;20779914;28;20029;-78
2021/03/29 20:03:01;;;;;;;6.40;2.83;;;10.50;99.90;;;;;;20782282;28;20033;-79
2021/03/29 20:13:02;;;;;;;7.30;3.10;;;10.10;99.90;;;;;;20805143;28;20111;-78
2021/03/29 20:23:05;;;;;;;5.40;2.30;;;10.10;99.90;;;;;;20790603;28;20112;-79
2021/03/29 20:33:06;;;;;;;4.63;2.30;;;10.20;99.90;;;;;;20774212;28;20561;-78
2021/03/29 20:43:07;;;;;;;4.70;2.37;;;9.70;99.90;;;;;;20824888;28;20053;-78
2021/03/29 20:53:08;;;;;;;4.93;2.23;;;9.80;99.90;;;;;;20742834;28;20034;-79
2021/03/29 21:03:09;;;;;;;6.03;2.53;;;9.80;99.90;;;;;;20702470;28;20030;-78
2021/03/29 21:13:10;;;;;;;3.87;2.13;;;8.90;99.90;;;;;;20748121;28;20057;-78
2021/03/29 21:23:11;;;;;;;5.33;2.23;;;9.10;99.90;;;;;;20765002;28;20030;-78
2021/03/29 21:33:14;;;;;;;5.30;2.03;;;9.50;99.90;;;;;;20760454;28;20065;-78
2021/03/29 21:43:15;;;;;;;4.97;2.22;;;9.30;99.90;;;;;;20758810;28;20052;-78
2021/03/29 21:53:16;;;;;;;4.57;1.67;;;8.80;99.90;;;;;;20773364;28;20037;-78
2021/03/29 22:03:17;;;;;;;3.43;1.70;;;8.90;99.90;;;;;;20773852;28;20061;-79
2021/03/29 22:13:18;;;;;;;3.23;1.67;;;9.40;99.90;;;;;;20772240;28;20373;-79
2021/03/29 22:23:21;;;;;;;3.03;1.67;;;9.60;99.90;;;;;;20760393;28;20034;-79
2021/03/29 22:33:28;;;;;;;4.47;1.90;;;9.50;99.90;;;;;;20761544;28;20065;-79
2021/03/29 22:43:29;;;;;;;5.00;1.98;;;9.60;99.90;;;;;;20751758;28;20476;-79
2021/03/29 22:53:31;;;;;;;3.90;1.77;;;9.70;99.90;;;;;;20771515;28;20261;-78
2021/03/29 23:03:32;;;;;;;;;;;9.60;99.90;;;;;;20754577;28;20030;-78
2021/03/29 23:13:33;;;;;;;3.75;1.88;;;9.30;99.90;;;;;;20767804;28;19932;-79
2021/03/29 23:23:33;;;;;;;5.63;1.90;;;9.20;99.90;;;;;;20822175;22;20507;-78
2021/03/29 23:33:35;;;;;;;3.03;1.73;;;9.30;99.90;;;;;;20853185;28;20044;-77
2021/03/29 23:43:35;;;;;;;3.60;2.10;;;9.20;99.90;;;;;;20833769;28;20087;-79
2021/03/29 23:53:36;;;;;;;7.20;1.93;;;9.00;99.90;;;;;;20858470;28;20045;-78
